Time;durP1;ratioP1;P1;durP2;ratioP2;P2;SDS_P1;SDS_P2;PMS_P1;PMS_P2;Temp;Humidity;BMP_temperature;BMP_pressure;BME280_temperature;BME280_humidity;BME280_pressure;Samples;Min_cycle;Max_cycle;Signal;HPM_P1;HPM_P2
2023/06/29 00:00:39;;;;;;;8.40;3.17;;;;;;;;;;7387127;19;20024;-63
2023/06/29 00:03:04;;;;;;;7.18;2.88;;;;;;;;;;7342075;19;20006;-65
2023/06/29 00:05:30;;;;;;;6.18;2.90;;;;;;;;;;7342185;19;20014;-64
2023/06/29 00:07:58;;;;;;;6.90;2.80;;;;;;;;;;7342840;19;20021;-64
2023/06/29 00:10:25;;;;;;;5.45;2.88;;;;;;;;;;7342084;19;20067;-65
2023/06/29 00:12:50;;;;;;;5.75;2.97;;;;;;;;;;7386202;19;20331;-63
2023/06/29 00:15:16;;;;;;;10.75;3.00;;;;;;;;;;7345281;19;20034;-65
2023/06/29 00:17:44;;;;;;;7.88;2.92;;;;;;;;;;7345286;19;20010;-63
2023/06/29 00:20:12;;;;;;;6.10;2.97;;;;;;;;;;7348213;19;20006;-64
2023/06/29 00:22:40;;;;;;;7.13;2.80;;;;;;;;;;7342914;19;20018;-65
2023/06/29 00:25:09;;;;;;;6.97;3.50;;;;;;;;;;7365745;19;20080;-63
2023/06/29 00:27:34;;;;;;;6.93;2.63;;;;;;;;;;7364929;19;20013;-63
2023/06/29 00:30:00;;;;;;;9.38;4.43;;;;;;;;;;7342203;19;20105;-64
2023/06/29 00:32:25;;;;;;;6.95;3.05;;;;;;;;;;7342318;19;20007;-64
2023/06/29 00:34:51;;;;;;;7.65;3.13;;;;;;;;;;7342824;19;20513;-65
2023/06/29 00:37:16;;;;;;;7.15;3.20;;;;;;;;;;7340194;19;20014;-64
2023/06/29 00:39:41;;;;;;;5.32;2.70;;;;;;;;;;7383784;19;20456;-64
2023/06/29 00:42:07;;;;;;;7.15;3.17;;;;;;;;;;7338820;19;20018;-64
2023/06/29 00:44:33;;;;;;;8.43;3.35;;;;;;;;;;7339072;19;20064;-64
2023/06/29 00:46:59;;;;;;;8.35;3.30;;;;;;;;;;7339582;19;20342;-64
2023/06/29 00:49:24;;;;;;;5.90;3.30;;;;;;;;;;7337398;19;20002;-63
2023/06/29 00:51:52;;;;;;;6.15;3.28;;;;;;;;;;7384192;19;20011;-64
2023/06/29 00:54:18;;;;;;;6.57;3.00;;;;;;;;;;7340565;19;20010;-63
2023/06/29 00:56:44;;;;;;;7.35;3.08;;;;;;;;;;7342720;19;20021;-63
2023/06/29 00:59:09;;;;;;;6.88;3.00;;;;;;;;;;7338621;19;20092;-63
2023/06/29 01:01:37;;;;;;;7.22;3.13;;;;;;;;;;7339819;19;20011;-65
2023/06/29 01:04:03;;;;;;;7.35;3.42;;;;;;;;;;7370889;19;20017;-63
2023/06/29 01:06:33;;;;;;;7.50;2.80;;;;;;;;;;7369981;19;20601;-66
2023/06/29 01:09:05;;;;;;;8.50;3.40;;;;;;;;;;7345583;19;20038;-63
2023/06/29 01:11:36;;;;;;;8.07;3.58;;;;;;;;;;7346104;19;20120;-63
2023/06/29 01:14:05;;;;;;;8.98;3.40;;;;;;;;;;7346459;19;20035;-63
2023/06/29 01:16:32;;;;;;;6.13;3.00;;;;;;;;;;7349474;19;20022;-64
2023/06/29 01:18:59;;;;;;;9.50;3.33;;;;;;;;;;7371707;19;20014;-64
2023/06/29 01:21:27;;;;;;;6.55;3.03;;;;;;;;;;7370796;19;20010;-63
2023/06/29 01:23:55;;;;;;;12.23;3.47;;;;;;;;;;7350193;19;20429;-62
2023/06/29 01:26:23;;;;;;;8.60;3.38;;;;;;;;;;7348027;19;20039;-64
2023/06/29 01:28:52;;;;;;;7.03;2.95;;;;;;;;;;7348860;19;20029;-64
2023/06/29 01:31:17;;;;;;;11.38;3.25;;;;;;;;;;7347817;19;20038;-64
2023/06/29 01:33:44;;;;;;;6.63;3.05;;;;;;;;;;7390806;19;20054;-63
2023/06/29 01:36:23;;;;;;;7.82;3.33;;;;;;;;;;7348859;19;20002;-64
2023/06/29 01:38:55;;;;;;;7.95;3.53;;;;;;;;;;7349705;19;20447;-65
2023/06/29 01:41:22;;;;;;;7.65;3.05;;;;;;;;;;7349501;19;20010;-65
2023/06/29 01:43:48;;;;;;;8.63;3.08;;;;;;;;;;7351810;19;20010;-64
2023/06/29 01:46:14;;;;;;;8.38;3.35;;;;;;;;;;7352640;19;21433;-65
2023/06/29 01:48:41;;;;;;;10.55;3.67;;;;;;;;;;7393395;19;20006;-64
2023/06/29 01:51:07;;;;;;;5.65;3.15;;;;;;;;;;7349812;19;20122;-64
2023/06/29 01:53:35;;;;;;;8.18;3.10;;;;;;;;;;7348325;19;20039;-65
2023/06/29 01:56:01;;;;;;;9.30;2.92;;;;;;;;;;7347557;19;20015;-65
2023/06/29 01:58:26;;;;;;;7.28;3.30;;;;;;;;;;7347261;19;20014;-65
2023/06/29 02:00:51;;;;;;;9.70;3.22;;;;;;;;;;7390266;19;20010;-65
2023/06/29 02:03:16;;;;;;;8.50;3.33;;;;;;;;;;7346812;19;20516;-65
2023/06/29 02:05:42;;;;;;;5.95;3.17;;;;;;;;;;7345636;19;20018;-65
2023/06/29 02:08:07;;;;;;;7.55;3.47;;;;;;;;;;7345540;19;20590;-65
2023/06/29 02:10:32;;;;;;;7.32;3.53;;;;;;;;;;7346047;19;20024;-65
2023/06/29 02:12:58;;;;;;;6.55;3.17;;;;;;;;;;7366778;19;20021;-65
2023/06/29 02:15:23;;;;;;;5.85;3.15;;;;;;;;;;7367916;19;20580;-65
2023/06/29 02:17:48;;;;;;;9.85;3.20;;;;;;;;;;7346028;19;20423;-65
2023/06/29 02:20:14;;;;;;;6.15;3.40;;;;;;;;;;7346402;19;20010;-65
2023/06/29 02:22:39;;;;;;;8.27;3.70;;;;;;;;;;7346424;19;20025;-65
2023/06/29 02:25:05;;;;;;;7.53;3.63;;;;;;;;;;7366734;19;19995;-64
2023/06/29 02:27:30;;;;;;;5.97;3.33;;;;;;;;;;7368672;19;20501;-65
2023/06/29 02:29:55;;;;;;;5.97;3.00;;;;;;;;;;7344929;19;20002;-65
2023/06/29 02:32:21;;;;;;;7.82;3.20;;;;;;;;;;7348076;19;20010;-64
2023/06/29 02:34:46;;;;;;;8.55;3.40;;;;;;;;;;7346031;19;20023;-65
2023/06/29 02:37:11;;;;;;;6.93;3.28;;;;;;;;;;7364414;19;20015;-65
2023/06/29 02:39:37;;;;;;;6.45;3.40;;;;;;;;;;7376714;19;20006;-65
2023/06/29 02:42:02;;;;;;;5.13;2.88;;;;;;;;;;7345140;19;20070;-65
2023/06/29 02:44:27;;;;;;;8.52;3.15;;;;;;;;;;7345413;19;20002;-65
2023/06/29 02:46:53;;;;;;;6.90;3.28;;;;;;;;;;7346448;19;20073;-65
2023/06/29 02:49:18;;;;;;;7.85;3.63;;;;;;;;;;7343465;19;20010;-65
2023/06/29 02:51:43;;;;;;;6.90;3.47;;;;;;;;;;7389174;19;20513;-65
2023/06/29 02:54:09;;;;;;;6.15;3.25;;;;;;;;;;7343850;19;20014;-65
2023/06/29 02:56:34;;;;;;;8.50;3.20;;;;;;;;;;7346300;19;20006;-65
2023/06/29 02:58:59;;;;;;;7.28;3.30;;;;;;;;;;7343482;19;20025;-65
2023/06/29 03:01:25;;;;;;;11.50;3.45;;;;;;;;;;7345018;19;21352;-65
2023/06/29 03:03:50;;;;;;;5.25;3.05;;;;;;;;;;7388417;19;20020;-65
2023/06/29 03:06:16;;;;;;;7.50;3.30;;;;;;;;;;7345241;19;20252;-65
2023/06/29 03:08:41;;;;;;;6.97;3.17;;;;;;;;;;7344494;19;20025;-65
2023/06/29 03:11:06;;;;;;;6.45;3.00;;;;;;;;;;7340505;19;20002;-64
2023/06/29 03:13:31;;;;;;;9.18;2.88;;;;;;;;;;7340342;19;20003;-65
2023/06/29 03:15:59;;;;;;;5.53;3.05;;;;;;;;;;7369631;19;20031;-65
2023/06/29 03:18:25;;;;;;;5.82;3.05;;;;;;;;;;7368294;19;20002;-65
2023/06/29 03:20:50;;;;;;;6.95;3.30;;;;;;;;;;7349833;19;20629;-64
2023/06/29 03:23:15;;;;;;;7.63;3.85;;;;;;;;;;7346979;19;20006;-65
2023/06/29 03:25:40;;;;;;;6.63;3.40;;;;;;;;;;7351509;19;20006;-65
2023/06/29 03:28:06;;;;;;;8.70;3.65;;;;;;;;;;7373244;19;20007;-65
2023/06/29 03:30:31;;;;;;;9.10;3.20;;;;;;;;;;7370981;19;20018;-65
2023/06/29 03:32:59;;;;;;;5.80;3.03;;;;;;;;;;7348986;19;20037;-65
2023/06/29 03:35:25;;;;;;;6.03;3.08;;;;;;;;;;7346954;19;20102;-65
2023/06/29 03:37:50;;;;;;;6.82;3.30;;;;;;;;;;7345767;19;20014;-65
2023/06/29 03:40:16;;;;;;;8.25;3.10;;;;;;;;;;7341630;19;20572;-65
2023/06/29 03:42:42;;;;;;;5.85;3.10;;;;;;;;;;7387617;19;20771;-65
2023/06/29 03:45:07;;;;;;;6.80;3.10;;;;;;;;;;7344850;19;20006;-65
2023/06/29 03:47:33;;;;;;;5.93;3.25;;;;;;;;;;7346651;19;20018;-65
2023/06/29 03:49:58;;;;;;;5.85;3.08;;;;;;;;;;7344204;19;20007;-65
2023/06/29 03:52:23;;;;;;;5.95;3.25;;;;;;;;;;7345039;19;20371;-65
2023/06/29 03:54:49;;;;;;;6.10;3.30;;;;;;;;;;7388903;19;20010;-65
2023/06/29 03:57:15;;;;;;;7.03;3.00;;;;;;;;;;7344709;19;20057;-65
2023/06/29 03:59:40;;;;;;;6.47;3.53;;;;;;;;;;7345000;19;20018;-65
2023/06/29 04:02:06;;;;;;;5.22;2.80;;;;;;;;;;7341272;19;20014;-65
2023/06/29 04:04:31;;;;;;;6.10;2.83;;;;;;;;;;7344987;19;20016;-65
2023/06/29 04:06:56;;;;;;;6.45;3.03;;;;;;;;;;7366187;19;20368;-65
2023/06/29 04:09:22;;;;;;;6.75;3.08;;;;;;;;;;7365486;19;20119;-65
2023/06/29 04:11:47;;;;;;;7.10;3.10;;;;;;;;;;7343692;19;20034;-65
2023/06/29 04:14:12;;;;;;;7.35;3.10;;;;;;;;;;7343388;19;20018;-63
2023/06/29 04:16:38;;;;;;;6.93;2.78;;;;;;;;;;7342590;19;20021;-65
2023/06/29 04:19:03;;;;;;;7.80;3.00;;;;;;;;;;7365233;19;20346;-65
2023/06/29 04:21:28;;;;;;;7.22;3.17;;;;;;;;;;7362311;19;20046;-65
2023/06/29 04:23:54;;;;;;;4.88;2.65;;;;;;;;;;7341783;19;20011;-65
2023/06/29 04:26:27;;;;;;;7.22;2.97;;;;;;;;;;7343352;19;20406;-64
2023/06/29 04:29:05;;;;;;;7.57;3.50;;;;;;;;;;7342072;19;20085;-64
2023/06/29 04:31:31;;;;;;;5.85;3.08;;;;;;;;;;7342370;19;20018;-64
2023/06/29 04:34:00;;;;;;;5.95;2.92;;;;;;;;;;7363950;19;20504;-64
2023/06/29 04:36:25;;;;;;;5.57;2.90;;;;;;;;;;7366068;19;20010;-66
2023/06/29 04:38:51;;;;;;;5.97;2.65;;;;;;;;;;7344328;19;20009;-63
2023/06/29 04:41:16;;;;;;;5.55;2.88;;;;;;;;;;7344365;19;20009;-66
2023/06/29 04:43:42;;;;;;;4.63;2.65;;;;;;;;;;7344103;19;20010;-64
2023/06/29 04:46:07;;;;;;;6.93;3.20;;;;;;;;;;7364255;19;20018;-64
2023/06/29 04:48:38;;;;;;;5.82;3.00;;;;;;;;;;7363449;19;20002;-65
2023/06/29 04:51:07;;;;;;;7.72;3.20;;;;;;;;;;7342715;19;20017;-66
2023/06/29 04:53:34;;;;;;;5.80;3.10;;;;;;;;;;7342729;19;20007;-71
2023/06/29 04:55:59;;;;;;;7.75;3.10;;;;;;;;;;7342852;19;20057;-72
2023/06/29 04:58:25;;;;;;;6.47;3.45;;;;;;;;;;7341475;19;20006;-73
2023/06/29 05:00:50;;;;;;;12.75;3.30;;;;;;;;;;7384884;19;20010;-72
2023/06/29 05:03:16;;;;;;;9.30;3.40;;;;;;;;;;7316498;19;20006;-71
2023/06/29 05:05:41;;;;;;;7.82;3.35;;;;;;;;;;7338604;19;20460;-71
2023/06/29 05:08:06;;;;;;;16.73;4.20;;;;;;;;;;7339806;19;20383;-71
2023/06/29 05:10:32;;;;;;;14.65;4.00;;;;;;;;;;7340787;19;20016;-68
2023/06/29 05:12:58;;;;;;;8.40;3.63;;;;;;;;;;7364569;19;20066;-71
2023/06/29 05:15:23;;;;;;;13.43;3.28;;;;;;;;;;7360637;19;20047;-71
2023/06/29 05:17:48;;;;;;;13.88;3.83;;;;;;;;;;7338596;19;20054;-71
2023/06/29 05:20:15;;;;;;;12.23;3.22;;;;;;;;;;7342873;19;20483;-72
2023/06/29 05:22:40;;;;;;;13.15;4.28;;;;;;;;;;7338400;19;20015;-71
2023/06/29 05:25:06;;;;;;;15.60;3.80;;;;;;;;;;7361357;19;20123;-71
2023/06/29 05:27:31;;;;;;;14.85;3.88;;;;;;;;;;7362351;19;20030;-71
2023/06/29 05:29:57;;;;;;;7.47;3.28;;;;;;;;;;7341793;19;20017;-71
2023/06/29 05:32:22;;;;;;;8.55;2.78;;;;;;;;;;7341115;19;20066;-73
2023/06/29 05:34:47;;;;;;;7.35;3.40;;;;;;;;;;7335766;19;20007;-71
2023/06/29 05:37:13;;;;;;;8.20;3.45;;;;;;;;;;7340864;19;20018;-71
2023/06/29 05:39:38;;;;;;;7.18;3.38;;;;;;;;;;7395186;19;19999;-71
2023/06/29 05:42:03;;;;;;;7.93;3.78;;;;;;;;;;7343882;19;20017;-71
2023/06/29 05:44:29;;;;;;;9.48;3.55;;;;;;;;;;7341402;19;20014;-71
2023/06/29 05:46:54;;;;;;;7.03;3.67;;;;;;;;;;7340797;19;20369;-71
2023/06/29 05:49:19;;;;;;;7.80;3.85;;;;;;;;;;7346836;19;20256;-72
2023/06/29 05:51:45;;;;;;;8.43;3.35;;;;;;;;;;7391274;19;20006;-72
2023/06/29 05:54:10;;;;;;;6.28;3.00;;;;;;;;;;7346862;19;20644;-71
2023/06/29 05:56:36;;;;;;;6.05;3.22;;;;;;;;;;7348759;19;20011;-71
2023/06/29 05:59:02;;;;;;;8.90;3.97;;;;;;;;;;7347299;19;20034;-71
2023/06/29 06:01:27;;;;;;;7.63;3.33;;;;;;;;;;7347075;19;20085;-72
2023/06/29 06:03:54;;;;;;;8.32;3.75;;;;;;;;;;7390540;19;20024;-71
2023/06/29 06:06:20;;;;;;;8.98;3.47;;;;;;;;;;7348155;19;20019;-71
2023/06/29 06:08:45;;;;;;;8.90;2.97;;;;;;;;;;7347330;19;20006;-70
2023/06/29 06:11:10;;;;;;;9.82;3.42;;;;;;;;;;7346928;19;20480;-69
2023/06/29 06:13:36;;;;;;;6.28;3.10;;;;;;;;;;7345952;19;20010;-65
2023/06/29 06:16:01;;;;;;;5.78;3.05;;;;;;;;;;7368050;19;20053;-63
2023/06/29 06:18:26;;;;;;;7.65;3.50;;;;;;;;;;7366883;19;20472;-65
2023/06/29 06:20:51;;;;;;;6.93;2.90;;;;;;;;;;7345262;19;20002;-65
2023/06/29 06:23:17;;;;;;;6.13;3.00;;;;;;;;;;7346533;19;20075;-64
2023/06/29 06:25:42;;;;;;;8.25;3.20;;;;;;;;;;7347612;19;20568;-64
2023/06/29 06:28:07;;;;;;;7.55;2.92;;;;;;;;;;7367229;19;20637;-64
2023/06/29 06:30:33;;;;;;;10.25;3.22;;;;;;;;;;7369760;19;20018;-64
2023/06/29 06:33:01;;;;;;;7.03;3.00;;;;;;;;;;7346759;19;20011;-64
2023/06/29 06:35:26;;;;;;;5.38;3.00;;;;;;;;;;7347719;19;20231;-65
2023/06/29 06:37:51;;;;;;;8.02;2.90;;;;;;;;;;7347574;19;20453;-65
2023/06/29 06:40:17;;;;;;;7.75;3.00;;;;;;;;;;7346511;19;20563;-65
2023/06/29 06:42:42;;;;;;;12.17;3.00;;;;;;;;;;7390891;19;20020;-65
2023/06/29 06:45:08;;;;;;;9.02;3.40;;;;;;;;;;7347164;19;20228;-64
2023/06/29 06:47:35;;;;;;;6.10;3.25;;;;;;;;;;7345560;19;20002;-65
2023/06/29 06:50:01;;;;;;;11.95;3.50;;;;;;;;;;7347260;19;20045;-64
2023/06/29 06:52:27;;;;;;;5.68;3.00;;;;;;;;;;7347700;19;20354;-65
2023/06/29 06:54:53;;;;;;;5.53;3.00;;;;;;;;;;7390769;19;20037;-63
2023/06/29 06:57:19;;;;;;;6.95;3.50;;;;;;;;;;7349503;19;20386;-64
2023/06/29 06:59:44;;;;;;;6.93;3.00;;;;;;;;;;7348152;19;20031;-64
2023/06/29 07:02:10;;;;;;;8.65;3.03;;;;;;;;;;7348110;19;20476;-63
2023/06/29 07:04:35;;;;;;;7.28;3.40;;;;;;;;;;7349906;19;20014;-64
2023/06/29 07:07:01;;;;;;;7.72;3.38;;;;;;;;;;7368692;19;20020;-63
2023/06/29 07:09:27;;;;;;;5.97;2.90;;;;;;;;;;7368493;19;20009;-64
2023/06/29 07:11:52;;;;;;;7.22;2.70;;;;;;;;;;7348599;19;20007;-64
2023/06/29 07:14:17;;;;;;;4.63;2.40;;;;;;;;;;7348491;19;20046;-64
2023/06/29 07:16:43;;;;;;;5.55;2.80;;;;;;;;;;7347862;19;20067;-64
2023/06/29 07:19:14;;;;;;;7.13;2.80;;;;;;;;;;7368627;19;20009;-64
2023/06/29 07:21:39;;;;;;;6.68;2.63;;;;;;;;;;7368870;19;20006;-66
2023/06/29 07:24:05;;;;;;;9.50;3.08;;;;;;;;;;7347042;19;19998;-65
2023/06/29 07:26:30;;;;;;;7.35;2.40;;;;;;;;;;7346264;19;20014;-65
2023/06/29 07:28:56;;;;;;;6.18;2.58;;;;;;;;;;7344826;19;20015;-63
2023/06/29 07:31:28;;;;;;;6.93;2.53;;;;;;;;;;7344708;19;20010;-63
2023/06/29 07:33:55;;;;;;;7.80;2.30;;;;;;;;;;7388249;19;20011;-65
2023/06/29 07:36:21;;;;;;;7.03;2.38;;;;;;;;;;7346389;19;20533;-64
2023/06/29 07:38:47;;;;;;;5.13;2.20;;;;;;;;;;7343950;19;20035;-63
2023/06/29 07:41:12;;;;;;;4.30;2.28;;;;;;;;;;7343765;19;20006;-65
2023/06/29 07:43:40;;;;;;;8.00;2.33;;;;;;;;;;7344090;19;20076;-63
2023/06/29 07:46:05;;;;;;;4.82;2.22;;;;;;;;;;7367949;19;20009;-64
2023/06/29 07:48:30;;;;;;;7.40;2.40;;;;;;;;;;7364207;19;20386;-63
2023/06/29 07:50:55;;;;;;;5.45;2.00;;;;;;;;;;7343117;19;20469;-66
2023/06/29 07:53:21;;;;;;;5.80;2.22;;;;;;;;;;7341847;19;20010;-65
2023/06/29 07:55:46;;;;;;;5.38;2.35;;;;;;;;;;7345341;19;20009;-62
2023/06/29 07:58:12;;;;;;;4.03;2.15;;;;;;;;;;7359535;19;20032;-65
2023/06/29 08:00:37;;;;;;;4.75;2.20;;;;;;;;;;7376339;19;20701;-64
2023/06/29 08:03:02;;;;;;;5.50;2.20;;;;;;;;;;7344956;19;20014;-62
2023/06/29 08:05:28;;;;;;;10.93;2.60;;;;;;;;;;7345135;19;20007;-63
2023/06/29 08:07:53;;;;;;;4.88;2.15;;;;;;;;;;7344883;19;20303;-64
2023/06/29 08:10:18;;;;;;;3.13;1.98;;;;;;;;;;7343096;19;20018;-65
2023/06/29 08:12:44;;;;;;;4.75;2.30;;;;;;;;;;7387577;19;20002;-65
2023/06/29 08:15:10;;;;;;;5.32;2.50;;;;;;;;;;7342889;19;20054;-64
2023/06/29 08:17:35;;;;;;;4.18;2.30;;;;;;;;;;7342547;19;20031;-65
2023/06/29 08:20:00;;;;;;;6.03;2.25;;;;;;;;;;7343220;19;20088;-65
2023/06/29 08:22:26;;;;;;;4.38;2.17;;;;;;;;;;7342580;19;20074;-65
2023/06/29 08:24:51;;;;;;;6.03;2.25;;;;;;;;;;7389890;19;20470;-65
2023/06/29 08:27:17;;;;;;;5.47;2.40;;;;;;;;;;7344132;19;20497;-65
2023/06/29 08:29:43;;;;;;;3.10;2.00;;;;;;;;;;7344343;19;20098;-65
2023/06/29 08:32:09;;;;;;;5.40;2.20;;;;;;;;;;7344289;19;20003;-65
2023/06/29 08:34:34;;;;;;;3.33;1.88;;;;;;;;;;7342806;19;20011;-65
2023/06/29 08:37:00;;;;;;;4.68;2.20;;;;;;;;;;7365749;19;20044;-65
2023/06/29 08:39:25;;;;;;;3.42;1.98;;;;;;;;;;7363969;19;20074;-65
2023/06/29 08:41:51;;;;;;;3.35;2.05;;;;;;;;;;7343389;19;20010;-65
2023/06/29 08:44:17;;;;;;;5.10;2.00;;;;;;;;;;7344318;19;20017;-65
2023/06/29 08:46:43;;;;;;;4.07;2.20;;;;;;;;;;7343639;19;20011;-65
2023/06/29 08:49:09;;;;;;;4.30;2.20;;;;;;;;;;7365279;19;20002;-65
2023/06/29 08:51:38;;;;;;;5.82;2.10;;;;;;;;;;7366794;19;20437;-65
2023/06/29 08:54:04;;;;;;;4.40;2.30;;;;;;;;;;7343112;19;20415;-65
2023/06/29 08:56:30;;;;;;;5.05;2.38;;;;;;;;;;7346323;19;20010;-65
2023/06/29 08:58:56;;;;;;;7.57;2.20;;;;;;;;;;7347866;19;20014;-65
2023/06/29 09:01:22;;;;;;;5.18;2.33;;;;;;;;;;7347091;19;20365;-64
2023/06/29 09:03:49;;;;;;;3.47;1.77;;;;;;;;;;7388935;19;20082;-64
2023/06/29 09:06:15;;;;;;;4.32;1.90;;;;;;;;;;7346800;19;20023;-64
2023/06/29 09:08:40;;;;;;;4.32;2.03;;;;;;;;;;7344465;19;20017;-64
2023/06/29 09:11:05;;;;;;;5.15;1.88;;;;;;;;;;7347035;19;20006;-65
2023/06/29 09:13:33;;;;;;;3.25;1.88;;;;;;;;;;7345895;19;20145;-64
2023/06/29 09:16:00;;;;;;;4.88;1.80;;;;;;;;;;7369100;19;20007;-65
2023/06/29 09:18:26;;;;;;;4.15;1.90;;;;;;;;;;7365864;19;20014;-63
2023/06/29 09:20:55;;;;;;;5.97;2.17;;;;;;;;;;7344587;19;20009;-63
2023/06/29 09:23:21;;;;;;;5.07;1.73;;;;;;;;;;7348234;19;20010;-63
2023/06/29 09:25:49;;;;;;;3.88;1.88;;;;;;;;;;7347882;19;20086;-63
2023/06/29 09:28:15;;;;;;;7.22;1.92;;;;;;;;;;7345869;19;20267;-65
2023/06/29 09:30:41;;;;;;;5.07;2.10;;;;;;;;;;7391176;19;20003;-64
2023/06/29 09:33:10;;;;;;;4.95;2.10;;;;;;;;;;7347541;19;20002;-63
2023/06/29 09:35:47;;;;;;;5.85;1.90;;;;;;;;;;7347699;19;20115;-63
2023/06/29 09:38:16;;;;;;;6.22;2.05;;;;;;;;;;7348023;19;20432;-63
2023/06/29 09:40:52;;;;;;;7.28;2.00;;;;;;;;;;7349515;19;20010;-65
2023/06/29 09:43:19;;;;;;;2.90;1.70;;;;;;;;;;7351084;19;20007;-65
2023/06/29 09:45:44;;;;;;;3.95;2.03;;;;;;;;;;7394115;19;20010;-62
2023/06/29 09:48:12;;;;;;;3.67;1.80;;;;;;;;;;7349294;19;20401;-63
2023/06/29 09:50:39;;;;;;;3.67;1.80;;;;;;;;;;7349611;19;20053;-61
2023/06/29 09:53:09;;;;;;;5.35;2.33;;;;;;;;;;7348325;19;20010;-63
2023/06/29 09:55:35;;;;;;;3.65;2.00;;;;;;;;;;7347737;19;20022;-63
2023/06/29 09:58:01;;;;;;;4.60;1.83;;;;;;;;;;7369017;19;20025;-62
2023/06/29 10:00:27;;;;;;;4.13;2.22;;;;;;;;;;7370578;19;20039;-62
2023/06/29 10:02:56;;;;;;;5.05;2.13;;;;;;;;;;7350276;19;20039;-63
2023/06/29 10:05:21;;;;;;;9.38;2.10;;;;;;;;;;7349295;19;20026;-63
2023/06/29 10:07:47;;;;;;;4.35;1.90;;;;;;;;;;7347593;19;20014;-62
2023/06/29 10:10:14;;;;;;;4.25;2.13;;;;;;;;;;7359856;19;20090;-63
2023/06/29 10:12:40;;;;;;;4.03;2.00;;;;;;;;;;7392524;19;20006;-63
2023/06/29 10:15:11;;;;;;;5.22;2.13;;;;;;;;;;7345525;19;20573;-64
2023/06/29 10:17:55;;;;;;;7.00;2.15;;;;;;;;;;7347792;19;20366;-64
2023/06/29 10:20:25;;;;;;;5.15;1.83;;;;;;;;;;7348601;19;20010;-63
2023/06/29 10:22:53;;;;;;;5.82;2.15;;;;;;;;;;7347875;19;20006;-64
2023/06/29 10:25:22;;;;;;;4.38;2.28;;;;;;;;;;7348051;19;20053;-64
2023/06/29 10:27:52;;;;;;;7.95;2.20;;;;;;;;;;7390860;19;20034;-64
2023/06/29 10:30:21;;;;;;;7.15;2.47;;;;;;;;;;7346993;19;20074;-64
2023/06/29 10:32:50;;;;;;;4.75;2.03;;;;;;;;;;7346543;19;20493;-62
2023/06/29 10:35:16;;;;;;;7.82;2.20;;;;;;;;;;7347555;19;20017;-64
2023/06/29 10:37:43;;;;;;;7.10;2.33;;;;;;;;;;7347205;19;20011;-64
2023/06/29 10:40:15;;;;;;;5.60;2.33;;;;;;;;;;7369100;19;20041;-64
2023/06/29 10:42:40;;;;;;;7.25;2.47;;;;;;;;;;7370439;19;20018;-63
2023/06/29 10:45:17;;;;;;;12.80;2.40;;;;;;;;;;7348303;19;20331;-63
2023/06/29 10:47:45;;;;;;;8.93;2.60;;;;;;;;;;7348316;19;20107;-64
2023/06/29 10:50:11;;;;;;;4.82;2.30;;;;;;;;;;7347408;19;20006;-64
2023/06/29 10:52:39;;;;;;;6.00;2.30;;;;;;;;;;7347093;19;20018;-64
2023/06/29 10:55:25;;;;;;;14.00;2.38;;;;;;;;;;7369346;19;20327;-64
2023/06/29 10:57:51;;;;;;;6.80;2.25;;;;;;;;;;7368205;19;20007;-63
2023/06/29 11:00:18;;;;;;;7.70;2.38;;;;;;;;;;7346389;19;20019;-64
2023/06/29 11:02:44;;;;;;;6.63;2.65;;;;;;;;;;7346412;19;20007;-65
2023/06/29 11:05:16;;;;;;;6.40;2.30;;;;;;;;;;7347079;19;20126;-63
2023/06/29 11:07:42;;;;;;;5.53;2.20;;;;;;;;;;7347090;19;20010;-63
2023/06/29 11:10:08;;;;;;;6.00;2.35;;;;;;;;;;7368509;19;20006;-64
2023/06/29 11:12:37;;;;;;;5.00;2.45;;;;;;;;;;7369645;19;20011;-62
2023/06/29 11:15:03;;;;;;;8.10;2.28;;;;;;;;;;7345547;19;20006;-63
2023/06/29 11:17:29;;;;;;;8.68;2.55;;;;;;;;;;7345868;19;20014;-62
2023/06/29 11:19:54;;;;;;;4.97;2.15;;;;;;;;;;7346333;19;20010;-64
2023/06/29 11:22:19;;;;;;;6.35;2.78;;;;;;;;;;7345263;19;20323;-64
2023/06/29 11:24:46;;;;;;;9.80;2.58;;;;;;;;;;7389986;19;20006;-64
2023/06/29 11:27:15;;;;;;;11.10;2.42;;;;;;;;;;7345299;19;20006;-64
2023/06/29 11:29:40;;;;;;;9.77;2.97;;;;;;;;;;7345892;19;20013;-64
2023/06/29 11:32:15;;;;;;;12.93;2.95;;;;;;;;;;7346536;19;20012;-64
2023/06/29 11:34:40;;;;;;;10.93;2.90;;;;;;;;;;7345895;19;20026;-64
2023/06/29 11:37:06;;;;;;;12.27;2.80;;;;;;;;;;7367492;19;20122;-64
2023/06/29 11:39:31;;;;;;;9.27;3.03;;;;;;;;;;7367235;19;20488;-64
2023/06/29 11:41:57;;;;;;;5.70;2.97;;;;;;;;;;7344952;19;20071;-64
2023/06/29 11:44:23;;;;;;;7.95;3.05;;;;;;;;;;7343722;19;20672;-64
2023/06/29 11:46:48;;;;;;;11.88;2.83;;;;;;;;;;7344568;19;20011;-64
2023/06/29 11:49:16;;;;;;;9.73;2.88;;;;;;;;;;7344377;19;21506;-64
2023/06/29 11:51:42;;;;;;;22.13;3.70;;;;;;;;;;7387780;19;19998;-65
2023/06/29 11:54:08;;;;;;;15.48;2.97;;;;;;;;;;7343678;19;20134;-64
2023/06/29 11:56:39;;;;;;;7.78;2.70;;;;;;;;;;7344444;19;20021;-64
2023/06/29 11:59:05;;;;;;;;;;;;;;;;;;7345768;19;20010;-64
2023/06/29 12:01:31;;;;;;;13.05;2.83;;;;;;;;;;7345257;19;19929;-64
2023/06/29 12:03:56;;;;;;;15.90;3.70;;;;;;;;;;7366920;19;20014;-64
2023/06/29 12:06:22;;;;;;;8.25;3.08;;;;;;;;;;7364377;19;20010;-65
2023/06/29 12:08:50;;;;;;;9.82;2.90;;;;;;;;;;7344979;19;20410;-64
2023/06/29 12:11:18;;;;;;;10.40;2.95;;;;;;;;;;7344497;19;20010;-64
2023/06/29 12:13:53;;;;;;;7.93;2.75;;;;;;;;;;7344282;19;20074;-65
2023/06/29 12:16:20;;;;;;;14.02;2.85;;;;;;;;;;7343301;19;20031;-64
2023/06/29 12:18:47;;;;;;;7.90;2.63;;;;;;;;;;7385485;19;20482;-64
2023/06/29 12:21:20;;;;;;;4.63;2.63;;;;;;;;;;7342394;19;20035;-64
2023/06/29 12:23:46;;;;;;;7.30;2.88;;;;;;;;;;7344672;19;20013;-65
2023/06/29 12:26:12;;;;;;;9.27;2.85;;;;;;;;;;7344793;19;20007;-64
2023/06/29 12:28:38;;;;;;;7.93;2.78;;;;;;;;;;7342970;19;20007;-66
2023/06/29 12:31:03;;;;;;;4.70;2.60;;;;;;;;;;7366335;19;20003;-64
2023/06/29 12:33:29;;;;;;;6.82;2.70;;;;;;;;;;7365903;19;20011;-65
2023/06/29 12:35:54;;;;;;;6.28;2.60;;;;;;;;;;7343985;19;20018;-64
2023/06/29 12:38:19;;;;;;;4.63;2.22;;;;;;;;;;7342865;19;20011;-64
2023/06/29 12:40:45;;;;;;;4.70;2.58;;;;;;;;;;7344227;19;20014;-65
2023/06/29 12:43:10;;;;;;;10.00;2.80;;;;;;;;;;7366591;19;20026;-64
2023/06/29 12:45:35;;;;;;;7.65;2.75;;;;;;;;;;7365976;19;20006;-64
2023/06/29 12:48:03;;;;;;;5.35;2.78;;;;;;;;;;7341973;19;20027;-64
2023/06/29 12:50:28;;;;;;;6.45;2.80;;;;;;;;;;7343472;19;20011;-64
2023/06/29 12:52:53;;;;;;;6.00;2.90;;;;;;;;;;7343529;19;20023;-65
2023/06/29 12:55:19;;;;;;;7.30;2.72;;;;;;;;;;7344721;19;20010;-65
2023/06/29 12:57:45;;;;;;;7.63;3.08;;;;;;;;;;7393324;19;20007;-64
2023/06/29 13:00:12;;;;;;;5.93;2.65;;;;;;;;;;7351385;19;20006;-65
2023/06/29 13:02:37;;;;;;;7.38;2.97;;;;;;;;;;7350859;19;20017;-64
2023/06/29 13:05:03;;;;;;;6.13;2.75;;;;;;;;;;7352089;19;20011;-64
2023/06/29 13:07:28;;;;;;;5.35;2.50;;;;;;;;;;7349409;19;20013;-63
2023/06/29 13:09:54;;;;;;;10.07;2.90;;;;;;;;;;7394695;19;20039;-64
2023/06/29 13:12:20;;;;;;;8.55;2.80;;;;;;;;;;7350385;19;20010;-65
2023/06/29 13:14:47;;;;;;;6.13;2.90;;;;;;;;;;7349823;19;20006;-64
2023/06/29 13:17:13;;;;;;;5.70;2.88;;;;;;;;;;7349151;19;20044;-65
2023/06/29 13:19:42;;;;;;;7.72;2.95;;;;;;;;;;7350091;19;20003;-64
2023/06/29 13:22:08;;;;;;;8.65;3.10;;;;;;;;;;7371842;19;20563;-64
2023/06/29 13:24:34;;;;;;;6.32;3.05;;;;;;;;;;7372818;19;20099;-65
2023/06/29 13:27:01;;;;;;;6.32;3.30;;;;;;;;;;7349480;19;20017;-64
2023/06/29 13:29:26;;;;;;;7.50;3.60;;;;;;;;;;7349895;19;20006;-64
2023/06/29 13:31:51;;;;;;;12.93;3.50;;;;;;;;;;7350462;19;20149;-64
2023/06/29 13:34:17;;;;;;;9.35;3.05;;;;;;;;;;7349001;19;20006;-64
2023/06/29 13:36:42;;;;;;;15.38;3.88;;;;;;;;;;7392935;19;20591;-64
2023/06/29 13:39:08;;;;;;;10.40;3.30;;;;;;;;;;7348957;19;20016;-64
2023/06/29 13:41:41;;;;;;;9.38;2.78;;;;;;;;;;7349757;19;20005;-64
2023/06/29 13:44:11;;;;;;;10.38;3.38;;;;;;;;;;7350641;19;20043;-65
2023/06/29 13:46:38;;;;;;;5.50;2.88;;;;;;;;;;7349977;19;20025;-64
2023/06/29 13:49:04;;;;;;;9.55;3.58;;;;;;;;;;7371521;19;19998;-64
2023/06/29 13:51:31;;;;;;;6.57;3.30;;;;;;;;;;7371079;19;20034;-63
2023/06/29 13:53:57;;;;;;;6.53;3.00;;;;;;;;;;7349232;19;20019;-63
2023/06/29 13:56:24;;;;;;;6.43;3.00;;;;;;;;;;7349066;19;20002;-64
2023/06/29 13:58:53;;;;;;;5.60;3.13;;;;;;;;;;7349571;19;20008;-64
2023/06/29 14:01:19;;;;;;;7.13;3.25;;;;;;;;;;7348322;19;20033;-63
2023/06/29 14:03:45;;;;;;;7.35;3.00;;;;;;;;;;7392632;19;20006;-67
2023/06/29 14:06:12;;;;;;;18.95;3.15;;;;;;;;;;7343044;19;20014;-65
2023/06/29 14:08:38;;;;;;;8.13;2.92;;;;;;;;;;7346792;19;20821;-65
2023/06/29 14:11:03;;;;;;;8.15;3.67;;;;;;;;;;7349594;19;20010;-64
2023/06/29 14:13:30;;;;;;;7.47;3.17;;;;;;;;;;7347971;19;20010;-65
2023/06/29 14:15:57;;;;;;;10.93;4.18;;;;;;;;;;7380604;19;20031;-62
2023/06/29 14:18:23;;;;;;;12.10;4.15;;;;;;;;;;7369572;19;20585;-64
2023/06/29 14:20:49;;;;;;;7.70;3.40;;;;;;;;;;7349008;19;20089;-65
2023/06/29 14:23:14;;;;;;;7.40;3.40;;;;;;;;;;7348118;19;20083;-64
2023/06/29 14:25:39;;;;;;;8.38;3.80;;;;;;;;;;7349878;19;20083;-64
2023/06/29 14:28:05;;;;;;;7.28;3.30;;;;;;;;;;7368470;19;20031;-64
2023/06/29 14:30:30;;;;;;;6.78;3.35;;;;;;;;;;7371055;19;20011;-63
2023/06/29 14:32:56;;;;;;;9.13;3.97;;;;;;;;;;7347416;19;20018;-64
2023/06/29 14:35:21;;;;;;;9.65;3.97;;;;;;;;;;7349201;19;20513;-64